sensor_id;sensor_type;location;lat;lon;timestamp;pressure;altitude;pressure_sealevel;temperature;humidity
64827;BME280;51265;53.972;12.286;2023-07-30T00:01:07;100169.25;;;14.95;100.00
64827;BME280;51265;53.972;12.286;2023-07-30T00:03:33;100173.84;;;14.91;100.00
64827;BME280;51265;53.972;12.286;2023-07-30T00:05:59;100176.16;;;14.89;100.00
64827;BME280;51265;53.972;12.286;2023-07-30T00:08:25;100179.25;;;14.88;100.00
64827;BME280;51265;53.972;12.286;2023-07-30T00:10:51;100178.25;;;14.92;100.00
64827;BME280;51265;53.972;12.286;2023-07-30T00:13:17;100178.44;;;14.87;100.00
64827;BME280;51265;53.972;12.286;2023-07-30T00:15:47;100178.31;;;14.84;100.00
64827;BME280;51265;53.972;12.286;2023-07-30T00:18:14;100184.53;;;14.81;100.00
64827;BME280;51265;53.972;12.286;2023-07-30T00:20:41;100189.28;;;14.80;100.00
64827;BME280;51265;53.972;12.286;2023-07-30T00:23:07;100179.31;;;14.79;100.00
64827;BME280;51265;53.972;12.286;2023-07-30T00:25:33;100176.69;;;14.83;100.00
64827;BME280;51265;53.972;12.286;2023-07-30T00:27:59;100180.63;;;14.82;100.00
64827;BME280;51265;53.972;12.286;2023-07-30T00:30:25;100180.00;;;14.76;100.00
64827;BME280;51265;53.972;12.286;2023-07-30T00:32:52;100183.44;;;14.73;100.00
64827;BME280;51265;53.972;12.286;2023-07-30T00:35:39;100186.09;;;14.69;100.00
64827;BME280;51265;53.972;12.286;2023-07-30T00:38:05;100180.88;;;14.68;100.00
64827;BME280;51265;53.972;12.286;2023-07-30T00:40:31;100180.59;;;14.61;100.00
64827;BME280;51265;53.972;12.286;2023-07-30T00:42:57;100190.06;;;14.60;100.00
64827;BME280;51265;53.972;12.286;2023-07-30T00:45:23;100180.13;;;14.59;100.00
64827;BME280;51265;53.972;12.286;2023-07-30T00:47:50;100190.72;;;14.57;100.00
64827;BME280;51265;53.972;12.286;2023-07-30T00:50:18;100193.97;;;14.59;100.00
64827;BME280;51265;53.972;12.286;2023-07-30T00:52:44;100200.34;;;14.59;100.00
64827;BME280;51265;53.972;12.286;2023-07-30T00:55:10;100197.75;;;14.54;100.00
64827;BME280;51265;53.972;12.286;2023-07-30T00:57:37;100207.38;;;14.57;100.00
64827;BME280;51265;53.972;12.286;2023-07-30T01:00:03;100211.28;;;14.56;100.00
64827;BME280;51265;53.972;12.286;2023-07-30T01:02:31;100211.28;;;14.56;100.00
64827;BME280;51265;53.972;12.286;2023-07-30T01:04:59;100217.03;;;14.51;100.00
64827;BME280;51265;53.972;12.286;2023-07-30T01:07:26;100216.69;;;14.52;100.00
64827;BME280;51265;53.972;12.286;2023-07-30T01:09:53;100219.31;;;14.49;100.00
64827;BME280;51265;53.972;12.286;2023-07-30T01:12:19;100224.34;;;14.47;100.00
64827;BME280;51265;53.972;12.286;2023-07-30T01:14:45;100226.63;;;14.44;100.00
64827;BME280;51265;53.972;12.286;2023-07-30T01:17:13;100223.41;;;14.42;100.00
64827;BME280;51265;53.972;12.286;2023-07-30T01:19:40;100225.69;;;14.40;100.00
64827;BME280;51265;53.972;12.286;2023-07-30T01:22:06;100216.91;;;14.38;100.00
64827;BME280;51265;53.972;12.286;2023-07-30T01:24:32;100219.84;;;14.33;100.00
64827;BME280;51265;53.972;12.286;2023-07-30T01:27:01;100227.03;;;14.34;100.00
64827;BME280;51265;53.972;12.286;2023-07-30T01:29:42;100226.53;;;14.32;100.00
64827;BME280;51265;53.972;12.286;2023-07-30T01:32:12;100233.22;;;14.31;100.00
64827;BME280;51265;53.972;12.286;2023-07-30T01:34:40;100231.63;;;14.30;100.00
64827;BME280;51265;53.972;12.286;2023-07-30T01:37:09;100242.69;;;14.30;100.00
64827;BME280;51265;53.972;12.286;2023-07-30T01:39:37;100244.97;;;14.28;100.00
64827;BME280;51265;53.972;12.286;2023-07-30T01:42:05;100243.34;;;14.27;100.00
64827;BME280;51265;53.972;12.286;2023-07-30T01:44:31;100244.81;;;14.25;100.00
64827;BME280;51265;53.972;12.286;2023-07-30T01:46:58;100249.53;;;14.24;100.00
64827;BME280;51265;53.972;12.286;2023-07-30T01:49:24;100251.03;;;14.22;100.00
64827;BME280;51265;53.972;12.286;2023-07-30T01:51:50;100249.75;;;14.19;100.00
64827;BME280;51265;53.972;12.286;2023-07-30T01:54:16;100256.09;;;14.19;100.00
64827;BME280;51265;53.972;12.286;2023-07-30T01:56:43;100257.38;;;14.22;100.00
64827;BME280;51265;53.972;12.286;2023-07-30T01:59:09;100256.69;;;14.25;100.00
64827;BME280;51265;53.972;12.286;2023-07-30T02:01:36;100266.00;;;14.20;100.00
64827;BME280;51265;53.972;12.286;2023-07-30T02:04:02;100260.63;;;14.24;100.00
64827;BME280;51265;53.972;12.286;2023-07-30T02:06:28;100267.13;;;14.28;100.00
64827;BME280;51265;53.972;12.286;2023-07-30T02:08:54;100264.88;;;14.22;100.00
64827;BME280;51265;53.972;12.286;2023-07-30T02:11:20;100270.75;;;14.20;100.00
64827;BME280;51265;53.972;12.286;2023-07-30T02:13:46;100268.16;;;14.15;100.00
64827;BME280;51265;53.972;12.286;2023-07-30T02:16:13;100264.94;;;14.13;100.00
64827;BME280;51265;53.972;12.286;2023-07-30T02:18:39;100260.84;;;14.10;100.00
64827;BME280;51265;53.972;12.286;2023-07-30T02:21:05;100264.94;;;14.13;100.00
64827;BME280;51265;53.972;12.286;2023-07-30T02:23:31;100264.63;;;14.06;100.00
64827;BME280;51265;53.972;12.286;2023-07-30T02:25:57;100260.03;;;14.10;100.00
64827;BME280;51265;53.972;12.286;2023-07-30T02:28:23;100262.81;;;14.10;100.00
64827;BME280;51265;53.972;12.286;2023-07-30T02:30:50;100267.53;;;14.09;100.00
64827;BME280;51265;53.972;12.286;2023-07-30T02:33:16;100267.69;;;14.13;100.00
64827;BME280;51265;53.972;12.286;2023-07-30T02:35:45;100266.53;;;14.14;100.00
64827;BME280;51265;53.972;12.286;2023-07-30T02:38:11;100274.84;;;14.14;100.00
64827;BME280;51265;53.972;12.286;2023-07-30T02:40:37;100265.84;;;14.17;100.00
64827;BME280;51265;53.972;12.286;2023-07-30T02:43:03;100262.63;;;14.15;100.00
64827;BME280;51265;53.972;12.286;2023-07-30T02:45:30;100270.91;;;14.24;100.00
64827;BME280;51265;53.972;12.286;2023-07-30T02:47:56;100262.13;;;14.22;100.00
64827;BME280;51265;53.972;12.286;2023-07-30T02:50:22;100266.16;;;14.24;100.00
64827;BME280;51265;53.972;12.286;2023-07-30T02:52:48;100274.47;;;14.24;100.00
64827;BME280;51265;53.972;12.286;2023-07-30T02:55:15;100274.97;;;14.26;100.00
64827;BME280;51265;53.972;12.286;2023-07-30T02:57:42;100276.59;;;14.27;100.00
64827;BME280;51265;53.972;12.286;2023-07-30T03:00:08;100277.06;;;14.29;100.00
64827;BME280;51265;53.972;12.286;2023-07-30T03:02:35;100288.13;;;14.29;100.00
64827;BME280;51265;53.972;12.286;2023-07-30T03:05:01;100288.63;;;14.31;100.00
64827;BME280;51265;53.972;12.286;2023-07-30T03:07:27;100295.78;;;14.32;100.00
64827;BME280;51265;53.972;12.286;2023-07-30T03:09:54;100295.94;;;14.36;100.00
64827;BME280;51265;53.972;12.286;2023-07-30T03:12:20;100309.44;;;14.37;100.00
64827;BME280;51265;53.972;12.286;2023-07-30T03:14:46;100323.94;;;14.43;100.00
64827;BME280;51265;53.972;12.286;2023-07-30T03:17:12;100321.66;;;14.45;100.00
64827;BME280;51265;53.972;12.286;2023-07-30T03:19:38;100319.06;;;14.49;100.00
64827;BME280;51265;53.972;12.286;2023-07-30T03:22:05;100321.19;;;14.52;100.00
64827;BME280;51265;53.972;12.286;2023-07-30T03:24:31;100333.22;;;14.56;100.00
64827;BME280;51265;53.972;12.286;2023-07-30T03:27:00;100332.53;;;14.59;100.00
64827;BME280;51265;53.972;12.286;2023-07-30T03:29:27;100336.59;;;14.61;100.00
64827;BME280;51265;53.972;12.286;2023-07-30T03:31:53;100338.72;;;14.64;100.00
64827;BME280;51265;53.972;12.286;2023-07-30T03:34:20;100343.13;;;14.65;100.00
64827;BME280;51265;53.972;12.286;2023-07-30T03:36:46;100354.66;;;14.76;100.00
64827;BME280;51265;53.972;12.286;2023-07-30T03:39:12;100354.66;;;14.76;100.00
64827;BME280;51265;53.972;12.286;2023-07-30T03:41:38;100356.28;;;14.77;100.00
64827;BME280;51265;53.972;12.286;2023-07-30T03:44:04;100365.56;;;14.81;100.00
64827;BME280;51265;53.972;12.286;2023-07-30T03:46:31;100355.41;;;14.85;100.00
64827;BME280;51265;53.972;12.286;2023-07-30T03:48:57;100360.78;;;14.90;100.00
64827;BME280;51265;53.972;12.286;2023-07-30T03:51:23;100365.66;;;14.93;100.00
64827;BME280;51265;53.972;12.286;2023-07-30T03:53:50;100364.16;;;14.96;100.00
64827;BME280;51265;53.972;12.286;2023-07-30T03:56:17;100368.56;;;14.97;100.00
64827;BME280;51265;53.972;12.286;2023-07-30T03:58:43;100379.97;;;14.95;100.00
64827;BME280;51265;53.972;12.286;2023-07-30T04:01:09;100375.13;;;14.92;100.00
64827;BME280;51265;53.972;12.286;2023-07-30T04:03:36;100367.94;;;14.91;100.00
64827;BME280;51265;53.972;12.286;2023-07-30T04:06:02;100367.28;;;14.94;100.00
64827;BME280;51265;53.972;12.286;2023-07-30T04:08:29;100368.44;;;14.93;100.00
64827;BME280;51265;53.972;12.286;2023-07-30T04:10:55;100364.16;;;14.96;100.00
64827;BME280;51265;53.972;12.286;2023-07-30T04:13:21;100349.97;;;14.98;100.00
64827;BME280;51265;53.972;12.286;2023-07-30T04:15:49;100358.59;;;14.96;100.00
64827;BME280;51265;53.972;12.286;2023-07-30T04:18:15;100368.88;;;14.95;100.00
64827;BME280;51265;53.972;12.286;2023-07-30T04:20:41;100384.88;;;14.99;100.00
64827;BME280;51265;53.972;12.286;2023-07-30T04:23:08;100393.69;;;15.01;100.00
64827;BME280;51265;53.972;12.286;2023-07-30T04:25:34;100384.41;;;14.97;100.00
64827;BME280;51265;53.972;12.286;2023-07-30T04:28:00;100373.63;;;14.95;100.00
64827;BME280;51265;53.972;12.286;2023-07-30T04:30:26;100374.44;;;14.95;100.00
64827;BME280;51265;53.972;12.286;2023-07-30T04:32:54;100378.66;;;15.02;100.00
64827;BME280;51265;53.972;12.286;2023-07-30T04:35:20;100371.63;;;15.04;100.00
64827;BME280;51265;53.972;12.286;2023-07-30T04:37:46;100377.97;;;15.05;100.00
64827;BME280;51265;53.972;12.286;2023-07-30T04:40:13;100383.81;;;15.12;100.00
64827;BME280;51265;53.972;12.286;2023-07-30T04:42:39;100391.41;;;15.24;100.00
64827;BME280;51265;53.972;12.286;2023-07-30T04:45:06;100394.88;;;15.41;100.00
64827;BME280;51265;53.972;12.286;2023-07-30T04:47:36;100404.88;;;15.63;100.00
64827;BME280;51265;53.972;12.286;2023-07-30T04:50:02;100405.28;;;15.74;100.00
64827;BME280;51265;53.972;12.286;2023-07-30T04:52:30;100403.13;;;15.80;100.00
64827;BME280;51265;53.972;12.286;2023-07-30T04:54:56;100403.97;;;15.80;100.00
64827;BME280;51265;53.972;12.286;2023-07-30T04:57:22;100410.19;;;15.77;100.00
64827;BME280;51265;53.972;12.286;2023-07-30T04:59:49;100411.53;;;15.71;100.00
64827;BME280;51265;53.972;12.286;2023-07-30T05:02:15;100394.59;;;15.64;100.00
64827;BME280;51265;53.972;12.286;2023-07-30T05:04:41;100400.81;;;15.61;100.00
64827;BME280;51265;53.972;12.286;2023-07-30T05:07:07;100397.53;;;15.59;100.00
64827;BME280;51265;53.972;12.286;2023-07-30T05:09:33;100396.22;;;15.65;100.00
64827;BME280;51265;53.972;12.286;2023-07-30T05:11:59;100399.53;;;15.79;100.00
64827;BME280;51265;53.972;12.286;2023-07-30T05:14:26;100406.97;;;15.87;100.00
64827;BME280;51265;53.972;12.286;2023-07-30T05:16:52;100419.75;;;16.01;100.00
64827;BME280;51265;53.972;12.286;2023-07-30T05:19:18;100422.59;;;16.13;100.00
64827;BME280;51265;53.972;12.286;2023-07-30T05:21:44;100430.75;;;16.18;100.00
64827;BME280;51265;53.972;12.286;2023-07-30T05:24:10;100423.53;;;16.17;100.00
64827;BME280;51265;53.972;12.286;2023-07-30T05:26:36;100418.69;;;16.14;100.00
64827;BME280;51265;53.972;12.286;2023-07-30T05:29:03;100417.97;;;16.17;100.00
64827;BME280;51265;53.972;12.286;2023-07-30T05:31:29;100412.88;;;16.07;100.00
64827;BME280;51265;53.972;12.286;2023-07-30T05:33:55;100418.28;;;16.03;100.00
64827;BME280;51265;53.972;12.286;2023-07-30T05:36:21;100417.75;;;16.10;100.00
64827;BME280;51265;53.972;12.286;2023-07-30T05:38:47;100422.41;;;16.18;100.00
64827;BME280;51265;53.972;12.286;2023-07-30T05:41:13;100428.69;;;16.27;100.00
64827;BME280;51265;53.972;12.286;2023-07-30T05:43:40;100440.31;;;16.41;100.00
64827;BME280;51265;53.972;12.286;2023-07-30T05:46:07;100438.59;;;16.49;100.00
64827;BME280;51265;53.972;12.286;2023-07-30T05:48:34;100437.31;;;16.47;100.00
64827;BME280;51265;53.972;12.286;2023-07-30T05:51:00;100434.06;;;16.44;100.00
64827;BME280;51265;53.972;12.286;2023-07-30T05:53:26;100442.28;;;16.74;100.00
64827;BME280;51265;53.972;12.286;2023-07-30T05:55:52;100436.56;;;16.71;100.00
64827;BME280;51265;53.972;12.286;2023-07-30T05:58:18;100422.53;;;16.67;100.00
64827;BME280;51265;53.972;12.286;2023-07-30T06:00:45;100428.63;;;16.81;100.00
64827;BME280;51265;53.972;12.286;2023-07-30T06:03:11;100413.97;;;16.60;100.00
64827;BME280;51265;53.972;12.286;2023-07-30T06:05:41;100403.78;;;16.64;100.00
64827;BME280;51265;53.972;12.286;2023-07-30T06:08:08;100402.94;;;16.63;100.00
64827;BME280;51265;53.972;12.286;2023-07-30T06:10:38;100377.34;;;16.58;100.00
64827;BME280;51265;53.972;12.286;2023-07-30T06:13:04;100380.34;;;16.53;100.00
64827;BME280;51265;53.972;12.286;2023-07-30T06:15:32;100370.56;;;16.34;100.00
64827;BME280;51265;53.972;12.286;2023-07-30T06:17:58;100359.34;;;16.31;100.00
64827;BME280;51265;53.972;12.286;2023-07-30T06:20:24;100357.31;;;16.52;100.00
64827;BME280;51265;53.972;12.286;2023-07-30T06:22:50;100360.78;;;16.61;100.00
64827;BME280;51265;53.972;12.286;2023-07-30T06:25:16;100334.94;;;16.61;100.00
64827;BME280;51265;53.972;12.286;2023-07-30T06:27:43;100323.81;;;16.49;100.00
64827;BME280;51265;53.972;12.286;2023-07-30T06:30:10;100326.28;;;16.75;100.00
64827;BME280;51265;53.972;12.286;2023-07-30T06:32:36;100304.81;;;16.51;100.00
64827;BME280;51265;53.972;12.286;2023-07-30T06:35:02;100294.84;;;16.37;100.00
64827;BME280;51265;53.972;12.286;2023-07-30T06:37:29;100271.69;;;16.46;100.00
64827;BME280;51265;53.972;12.286;2023-07-30T06:39:55;100257.47;;;16.35;100.00
64827;BME280;51265;53.972;12.286;2023-07-30T06:42:21;100249.94;;;16.48;100.00
64827;BME280;51265;53.972;12.286;2023-07-30T06:44:47;100245.28;;;16.27;100.00
64827;BME280;51265;53.972;12.286;2023-07-30T06:47:13;100241.59;;;16.35;100.00
64827;BME280;51265;53.972;12.286;2023-07-30T06:49:39;100234.88;;;16.49;100.00
64827;BME280;51265;53.972;12.286;2023-07-30T06:52:06;100234.38;;;16.59;100.00
64827;BME280;51265;53.972;12.286;2023-07-30T06:54:32;100241.91;;;16.95;100.00
64827;BME280;51265;53.972;12.286;2023-07-30T06:56:58;100237.09;;;17.20;100.00
64827;BME280;51265;53.972;12.286;2023-07-30T06:59:24;100229.72;;;17.40;100.00
64827;BME280;51265;53.972;12.286;2023-07-30T07:01:51;100208.50;;;17.35;100.00
64827;BME280;51265;53.972;12.286;2023-07-30T07:04:17;100203.97;;;17.59;100.00
64827;BME280;51265;53.972;12.286;2023-07-30T07:06:44;100181.38;;;17.76;100.00
64827;BME280;51265;53.972;12.286;2023-07-30T07:09:10;100174.41;;;17.82;100.00
64827;BME280;51265;53.972;12.286;2023-07-30T07:11:36;100152.13;;;17.82;100.00
64827;BME280;51265;53.972;12.286;2023-07-30T07:14:03;100134.50;;;17.78;100.00
64827;BME280;51265;53.972;12.286;2023-07-30T07:16:29;100125.16;;;17.86;100.00
64827;BME280;51265;53.972;12.286;2023-07-30T07:18:56;100114.81;;;17.87;100.00
64827;BME280;51265;53.972;12.286;2023-07-30T07:21:22;100103.16;;;17.81;100.00
64827;BME280;51265;53.972;12.286;2023-07-30T07:23:48;100101.00;;;17.90;100.00
64827;BME280;51265;53.972;12.286;2023-07-30T07:26:14;100092.53;;;18.03;100.00
64827;BME280;51265;53.972;12.286;2023-07-30T07:28:40;100087.47;;;18.08;100.00
64827;BME280;51265;53.972;12.286;2023-07-30T07:31:06;100089.38;;;17.88;100.00
64827;BME280;51265;53.972;12.286;2023-07-30T07:33:32;100081.84;;;17.73;100.00
64827;BME280;51265;53.972;12.286;2023-07-30T07:36:08;100085.06;;;17.43;100.00
64827;BME280;51265;53.972;12.286;2023-07-30T07:38:34;100074.19;;;17.38;100.00
64827;BME280;51265;53.972;12.286;2023-07-30T07:41:01;100077.00;;;17.86;100.00
64827;BME280;51265;53.972;12.286;2023-07-30T07:43:27;100072.56;;;18.01;100.00
64827;BME280;51265;53.972;12.286;2023-07-30T07:45:53;100063.31;;;17.97;100.00
64827;BME280;51265;53.972;12.286;2023-07-30T07:48:19;100056.78;;;17.73;100.00
64827;BME280;51265;53.972;12.286;2023-07-30T07:50:45;100046.97;;;17.16;100.00
64827;BME280;51265;53.972;12.286;2023-07-30T07:53:12;100051.94;;;16.95;100.00
64827;BME280;51265;53.972;12.286;2023-07-30T07:55:38;100063.38;;;17.21;100.00
64827;BME280;51265;53.972;12.286;2023-07-30T07:58:04;100057.75;;;17.33;100.00
64827;BME280;51265;53.972;12.286;2023-07-30T08:00:30;100058.13;;;17.48;100.00
64827;BME280;51265;53.972;12.286;2023-07-30T08:02:56;100046.09;;;17.28;100.00
64827;BME280;51265;53.972;12.286;2023-07-30T08:05:22;100053.81;;;17.66;100.00
64827;BME280;51265;53.972;12.286;2023-07-30T08:07:50;100053.72;;;17.47;100.00
64827;BME280;51265;53.972;12.286;2023-07-30T08:10:16;100057.31;;;17.63;100.00
64827;BME280;51265;53.972;12.286;2023-07-30T08:12:43;100053.81;;;17.66;100.00
64827;BME280;51265;53.972;12.286;2023-07-30T08:15:09;100047.25;;;18.25;100.00
64827;BME280;51265;53.972;12.286;2023-07-30T08:17:35;100041.31;;;18.46;100.00
64827;BME280;51265;53.972;12.286;2023-07-30T08:20:01;100044.00;;;19.20;100.00
64827;BME280;51265;53.972;12.286;2023-07-30T08:22:27;100041.53;;;19.38;100.00
64827;BME280;51265;53.972;12.286;2023-07-30T08:24:54;100030.78;;;19.17;100.00
64827;BME280;51265;53.972;12.286;2023-07-30T08:27:20;100009.44;;;19.05;100.00
64827;BME280;51265;53.972;12.286;2023-07-30T08:29:46;100012.44;;;19.62;100.00
64827;BME280;51265;53.972;12.286;2023-07-30T08:32:12;100002.63;;;19.03;100.00
64827;BME280;51265;53.972;12.286;2023-07-30T08:34:38;100003.22;;;18.92;100.00
64827;BME280;51265;53.972;12.286;2023-07-30T08:37:04;100000.66;;;18.84;100.00
64827;BME280;51265;53.972;12.286;2023-07-30T08:39:30;100000.47;;;18.73;100.00
64827;BME280;51265;53.972;12.286;2023-07-30T08:41:57;100006.56;;;19.02;100.00
64827;BME280;51265;53.972;12.286;2023-07-30T08:44:23;100002.81;;;19.36;100.00
64827;BME280;51265;53.972;12.286;2023-07-30T08:46:50;100000.22;;;20.00;100.00
64827;BME280;51265;53.972;12.286;2023-07-30T08:49:16;99995.50;;;20.04;100.00
64827;BME280;51265;53.972;12.286;2023-07-30T08:51:42;99980.06;;;20.14;100.00
64827;BME280;51265;53.972;12.286;2023-07-30T08:54:09;99953.91;;;19.99;100.00
64827;BME280;51265;53.972;12.286;2023-07-30T08:56:36;99940.41;;;20.05;100.00
64827;BME280;51265;53.972;12.286;2023-07-30T08:59:03;99946.84;;;20.43;100.00
64827;BME280;51265;53.972;12.286;2023-07-30T09:01:37;99951.19;;;21.11;100.00
64827;BME280;51265;53.972;12.286;2023-07-30T09:04:05;99929.38;;;20.86;100.00
64827;BME280;51265;53.972;12.286;2023-07-30T09:06:32;99905.16;;;20.64;100.00
64827;BME280;51265;53.972;12.286;2023-07-30T09:08:58;99898.38;;;20.31;100.00
64827;BME280;51265;53.972;12.286;2023-07-30T09:11:25;99903.22;;;19.71;100.00
64827;BME280;51265;53.972;12.286;2023-07-30T09:13:54;99897.00;;;19.84;100.00
64827;BME280;51265;53.972;12.286;2023-07-30T09:16:24;99887.63;;;20.00;100.00
64827;BME280;51265;53.972;12.286;2023-07-30T09:18:51;99888.88;;;20.39;99.49
64827;BME280;51265;53.972;12.286;2023-07-30T09:21:19;99902.41;;;21.12;100.00
64827;BME280;51265;53.972;12.286;2023-07-30T09:23:46;99874.66;;;21.41;95.71
64827;BME280;51265;53.972;12.286;2023-07-30T09:26:13;99839.44;;;21.47;90.11
64827;BME280;51265;53.972;12.286;2023-07-30T09:28:39;99808.25;;;21.52;86.47
64827;BME280;51265;53.972;12.286;2023-07-30T09:31:07;99833.06;;;21.50;89.42
64827;BME280;51265;53.972;12.286;2023-07-30T09:33:35;99855.63;;;21.82;92.60
64827;BME280;51265;53.972;12.286;2023-07-30T09:36:07;99798.19;;;21.40;86.91
64827;BME280;51265;53.972;12.286;2023-07-30T09:38:41;99794.75;;;21.72;85.96
64827;BME280;51265;53.972;12.286;2023-07-30T09:41:08;99809.63;;;21.94;86.74
64827;BME280;51265;53.972;12.286;2023-07-30T09:43:35;99778.75;;;21.79;83.75
64827;BME280;51265;53.972;12.286;2023-07-30T09:46:06;99745.41;;;21.46;81.84
64827;BME280;51265;53.972;12.286;2023-07-30T09:48:33;99746.59;;;21.41;82.23
64827;BME280;51265;53.972;12.286;2023-07-30T09:51:01;99748.91;;;21.28;81.93
64827;BME280;51265;53.972;12.286;2023-07-30T09:53:33;99729.81;;;21.45;79.86
64827;BME280;51265;53.972;12.286;2023-07-30T09:56:02;99710.69;;;21.75;77.84
64827;BME280;51265;53.972;12.286;2023-07-30T09:58:29;99724.38;;;22.09;78.05
64827;BME280;51265;53.972;12.286;2023-07-30T10:00:58;99708.00;;;22.54;76.95
64827;BME280;51265;53.972;12.286;2023-07-30T10:03:26;99691.50;;;22.77;75.28
64827;BME280;51265;53.972;12.286;2023-07-30T10:06:01;99641.75;;;22.81;72.44
64827;BME280;51265;53.972;12.286;2023-07-30T10:08:30;99650.28;;;22.38;73.38
64827;BME280;51265;53.972;12.286;2023-07-30T10:10:58;99636.22;;;21.88;73.83
64827;BME280;51265;53.972;12.286;2023-07-30T10:13:26;99697.16;;;22.34;75.54
64827;BME280;51265;53.972;12.286;2023-07-30T10:15:52;99705.47;;;23.13;75.70
64827;BME280;51265;53.972;12.286;2023-07-30T10:18:19;99680.81;;;23.56;73.43
64827;BME280;51265;53.972;12.286;2023-07-30T10:20:53;99607.19;;;23.13;69.53
64827;BME280;51265;53.972;12.286;2023-07-30T10:23:21;99668.75;;;23.67;71.43
64827;BME280;51265;53.972;12.286;2023-07-30T10:25:49;99668.50;;;24.02;71.53
64827;BME280;51265;53.972;12.286;2023-07-30T10:28:32;99605.16;;;23.87;68.55
64827;BME280;51265;53.972;12.286;2023-07-30T10:31:01;99608.50;;;23.64;68.23
64827;BME280;51265;53.972;12.286;2023-07-30T10:33:45;99748.22;;;23.71;67.40
64827;BME280;51265;53.972;12.286;2023-07-30T10:36:11;99778.91;;;24.14;68.03
64827;BME280;51265;53.972;12.286;2023-07-30T10:38:38;99794.88;;;24.87;67.74
64827;BME280;51265;53.972;12.286;2023-07-30T10:41:10;99752.66;;;25.24;64.07
64827;BME280;51265;53.972;12.286;2023-07-30T10:43:42;99684.13;;;24.59;61.74
64827;BME280;51265;53.972;12.286;2023-07-30T10:46:11;99699.66;;;24.26;62.76
64827;BME280;51265;53.972;12.286;2023-07-30T10:48:39;99729.34;;;24.34;63.48
64827;BME280;51265;53.972;12.286;2023-07-30T10:51:08;99786.16;;;24.70;64.87
64827;BME280;51265;53.972;12.286;2023-07-30T10:53:35;99760.63;;;24.92;63.80
64827;BME280;51265;53.972;12.286;2023-07-30T10:56:06;99739.16;;;24.67;62.58
64827;BME280;51265;53.972;12.286;2023-07-30T10:58:35;99740.69;;;25.17;61.64
64827;BME280;51265;53.972;12.286;2023-07-30T11:01:05;99776.13;;;25.82;62.67
64827;BME280;51265;53.972;12.286;2023-07-30T11:03:31;99706.91;;;25.47;60.33
64827;BME280;51265;53.972;12.286;2023-07-30T11:05:58;99758.56;;;25.71;61.91
64827;BME280;51265;53.972;12.286;2023-07-30T11:08:39;99766.09;;;25.47;62.27
64827;BME280;51265;53.972;12.286;2023-07-30T11:11:07;99774.22;;;25.42;62.21
64827;BME280;51265;53.972;12.286;2023-07-30T11:13:38;99733.31;;;24.44;61.91
64827;BME280;51265;53.972;12.286;2023-07-30T11:16:05;99712.47;;;24.34;60.96
64827;BME280;51265;53.972;12.286;2023-07-30T11:18:33;99760.66;;;24.36;62.78
64827;BME280;51265;53.972;12.286;2023-07-30T11:21:09;99724.16;;;23.59;62.06
64827;BME280;51265;53.972;12.286;2023-07-30T11:23:38;99748.97;;;23.78;61.88
64827;BME280;51265;53.972;12.286;2023-07-30T11:26:06;99752.03;;;24.09;61.83
64827;BME280;51265;53.972;12.286;2023-07-30T11:28:37;99788.78;;;24.47;62.36
64827;BME280;51265;53.972;12.286;2023-07-30T11:31:17;99796.91;;;25.27;61.12
64827;BME280;51265;53.972;12.286;2023-07-30T11:33:48;99691.19;;;24.74;57.12
64827;BME280;51265;53.972;12.286;2023-07-30T11:36:18;99716.72;;;24.98;58.50
64827;BME280;51265;53.972;12.286;2023-07-30T11:38:45;99722.06;;;24.85;58.56
64827;BME280;51265;53.972;12.286;2023-07-30T11:41:12;99697.16;;;24.39;57.77
64827;BME280;51265;53.972;12.286;2023-07-30T11:43:41;99754.25;;;24.88;59.23
64827;BME280;51265;53.972;12.286;2023-07-30T11:46:13;99779.03;;;25.41;59.18
64827;BME280;51265;53.972;12.286;2023-07-30T11:48:42;99712.84;;;25.22;56.87
64827;BME280;51265;53.972;12.286;2023-07-30T11:51:26;99743.50;;;25.51;58.15
64827;BME280;51265;53.972;12.286;2023-07-30T11:53:59;99764.69;;;25.97;58.01
64827;BME280;51265;53.972;12.286;2023-07-30T11:56:31;99750.09;;;26.02;57.20
64827;BME280;51265;53.972;12.286;2023-07-30T11:59:05;99771.50;;;26.26;57.72
64827;BME280;51265;53.972;12.286;2023-07-30T12:01:34;99730.88;;;26.47;56.16
64827;BME280;51265;53.972;12.286;2023-07-30T12:04:02;99757.16;;;26.41;56.53
64827;BME280;51265;53.972;12.286;2023-07-30T12:06:45;99755.63;;;26.36;56.49
64827;BME280;51265;53.972;12.286;2023-07-30T12:09:14;99743.44;;;25.89;56.79
64827;BME280;51265;53.972;12.286;2023-07-30T12:14:22;99712.72;;;25.64;55.94
64827;BME280;51265;53.972;12.286;2023-07-30T12:16:51;99755.91;;;25.57;57.66
64827;BME280;51265;53.972;12.286;2023-07-30T12:19:17;99745.38;;;25.92;56.21
64827;BME280;51265;53.972;12.286;2023-07-30T12:21:43;99700.47;;;25.77;54.23
64827;BME280;51265;53.972;12.286;2023-07-30T12:24:09;99686.25;;;25.54;54.27
64827;BME280;51265;53.972;12.286;2023-07-30T12:26:36;99717.84;;;25.42;55.51
64827;BME280;51265;53.972;12.286;2023-07-30T12:29:02;99717.13;;;25.34;56.19
64827;BME280;51265;53.972;12.286;2023-07-30T12:31:28;99737.41;;;25.22;56.62
64827;BME280;51265;53.972;12.286;2023-07-30T12:33:55;99788.97;;;25.53;58.32
64827;BME280;51265;53.972;12.286;2023-07-30T12:36:21;99765.88;;;25.96;56.70
64827;BME280;51265;53.972;12.286;2023-07-30T12:38:47;99707.41;;;25.69;54.89